Aeroporto :
LOGIN :

Iscrizione | Disclaimer

   EN    FR    IT 

 










Sommario :    VFR   VFR Marginale   IFR   IFR Intensivo   IFR Molto Intensivo
Visibilità : 
Base nubi : 
>= 8 km
>= 3000ft
5 / 8 km
1000 / 3000 ft
1500m / 5 km
500 / 1000 ft
800 / 1500m
200 / 500 ft
< 800m
< 200 ft
Simboli :   Temporali  Nebbia  Neve Forte  Precipitazioni Forti  Vento > 20 kt
SIGMETs :   Varie  Temporali  Ghiacco  Turbolenza  Onda orograficha  Ceneri Vulcaniche






- Altitudine del aeroporto : 160 ft
- Codice IATA : LRT


LFRH - Lorient Lann Bihoue

ULTIMO METAR :
  • 020630Z AUTO 29007KT 250V320 9999 RA BKN030/// BKN035/// BKN041/// ///TCU 05/03 Q0992 TEMPO 4000 SHRA

METARs OBSOLETI :
  • 020600Z AUTO 26003KT 9999 FEW030/// SCT043/// ///TCU 05/03 Q0992 TEMPO 4000 SHRA
  • 020530Z AUTO 28011KT 9999 SCT026/// BKN035/// BKN042/// ///TCU 06/04 Q0992 BECMG SCT030
  • 020500Z AUTO 25008KT 9999 BKN024/// BKN033/// BKN040/// ///TCU 06/04 Q0992 BECMG SCT030
  • 020430Z AUTO 27007KT 230V300 9999 SCT029/// BKN036/// BKN044/// ///TCU 06/04 Q0992 BECMG SCT030
  • 012100Z AUTO 24018G29KT 9999 SCT033 SCT046 BKN130 08/04 Q0995 TEMPO 2000 TSRA BKN020CB
  • 020400Z AUTO 28008KT 240V310 9999 BKN024/// BKN041/// BKN054/// ///TCU 07/04 Q0992 BECMG SCT030
  • 020330Z AUTO 26012KT 9999 SCT026/// BKN054/// BKN088/// ///TCU 06/04 Q0992 BECMG SCT030
  • 020300Z AUTO 27011KT 240V300 9999 -RA SCT022/// BKN028/// BKN035/// ///TCU 07/04 Q0992 BECMG SCT030
  • 020230Z AUTO 25017KT 220V290 8000 -RA BKN025/// BKN039/// BKN078/// ///TCU 07/04 Q0992 BECMG SCT030
  • 020200Z AUTO 24020KT 9999 -RA BKN023/// BKN049/// BKN084/// ///CB 07/05 Q0993 TEMPO 26015G35KT 4000 SHRA BECMG SCT030
  • 020130Z AUTO 24019KT 210V280 9999 -RA SCT028/// BKN040/// BKN056/// ///CB 08/04 Q0993 TEMPO 26015G35KT 4000 SHRA BECMG SCT030

TAF TAF LFRH
Valido dal 02 a 06 ore il 03 a 06 ore UTC


020500Z 0206/0306 25010KT 9999 BKN020
BECMG 0208/0210 31010KT
TEMPO 0206/0212 4000 SHRA SCT020TCU
TEMPO 0212/0218 4000 SHRA SCT020CB
BECMG 0219/0221 VRB03KT



MetMap, La meteo Aeronautica in un colpo d'occhio ! - Copyright ORBIFLY Dicembre 2007 - Disclaimer

ORBIFLY MET'MAP TEAM :

Programmazione e sviluppo : Alexandra Zaïnal
Concezione : Baudouin d'Aumeries
Supporto tecnico e logistico : Manuel Goepfert
Aiuto : Marc-Olivier Méhu
Aiuto per la traduzione : Arnaldo La Scala




FONTI E CREDITI :

   NOAA